RYR611 EIDW-EIKY
Flight info
| Callsign | RYR611 |
|---|---|
| Flight time | 0h 43m |
| Altitude | 8000 |
| Route | INKUR8E INKUR L975 SHA DCT KER |
| Aircraft | B738/M-SDE2E3FGHIRWXY/LB1 |
Departure
| Time | 2026-04-30 11:32 |
|---|---|
| Airport | Dublin Airport (EIDW) |
Arrival
| Time | 2026-04-30 12:16 |
|---|---|
| Airport | Kerry Airport (EIKY) |
| Time | Latitude | Longitude | Altitude | Speed | Heading |
|---|---|---|---|---|---|
| 2026-04-30 11:00 | 53.43101 | -6.24763 | 210 ft | 0 kts | 185° |
| 2026-04-30 11:19 | 53.43121 | -6.24760 | 214 ft | 4 kts | 186° |
| 2026-04-30 11:19 | 53.43148 | -6.24755 | 212 ft | 4 kts | 191° |
| 2026-04-30 11:19 | 53.43173 | -6.24742 | 215 ft | 4 kts | 220° |
| 2026-04-30 11:20 | 53.43181 | -6.24722 | 218 ft | 0 kts | 275° |
| 2026-04-30 11:24 | 53.43184 | -6.24763 | 210 ft | 10 kts | 275° |
| 2026-04-30 11:24 | 53.43198 | -6.24973 | 210 ft | 23 kts | 276° |
| 2026-04-30 11:25 | 53.43194 | -6.25358 | 214 ft | 8 kts | 246° |
| 2026-04-30 11:25 | 53.43146 | -6.25391 | 218 ft | 8 kts | 163° |
| 2026-04-30 11:25 | 53.43081 | -6.25343 | 215 ft | 0 kts | 156° |
| 2026-04-30 11:26 | 53.43061 | -6.25328 | 214 ft | 8 kts | 157° |
| 2026-04-30 11:26 | 53.42976 | -6.25267 | 214 ft | 18 kts | 156° |
| 2026-04-30 11:26 | 53.42857 | -6.25182 | 219 ft | 18 kts | 166° |
| 2026-04-30 11:27 | 53.42788 | -6.25263 | 212 ft | 11 kts | 227° |
| 2026-04-30 11:27 | 53.42739 | -6.25345 | 214 ft | 10 kts | 225° |
| 2026-04-30 11:27 | 53.42681 | -6.25445 | 217 ft | 20 kts | 225° |
| 2026-04-30 11:27 | 53.42546 | -6.25676 | 210 ft | 30 kts | 226° |
| 2026-04-30 11:28 | 53.42280 | -6.26160 | 212 ft | 27 kts | 245° |
| 2026-04-30 11:28 | 53.42274 | -6.26454 | 213 ft | 25 kts | 275° |
| 2026-04-30 11:28 | 53.42289 | -6.26731 | 210 ft | 23 kts | 275° |
| 2026-04-30 11:29 | 53.42304 | -6.26991 | 210 ft | 22 kts | 274° |
| 2026-04-30 11:29 | 53.42317 | -6.27246 | 211 ft | 22 kts | 275° |
| 2026-04-30 11:29 | 53.42344 | -6.27736 | 210 ft | 20 kts | 275° |
| 2026-04-30 11:30 | 53.42370 | -6.28197 | 210 ft | 19 kts | 275° |
| 2026-04-30 11:30 | 53.42383 | -6.28421 | 210 ft | 21 kts | 275° |
| 2026-04-30 11:30 | 53.42398 | -6.28699 | 210 ft | 27 kts | 275° |
| 2026-04-30 11:31 | 53.42399 | -6.29012 | 210 ft | 25 kts | 239° |
| 2026-04-30 11:31 | 53.42262 | -6.29049 | 214 ft | 18 kts | 143° |
| 2026-04-30 11:31 | 53.42234 | -6.28840 | 217 ft | 27 kts | 95° |
| 2026-04-30 11:31 | 53.42196 | -6.28112 | 211 ft | 97 kts | 95° |
| 2026-04-30 11:32 | 53.42119 | -6.26662 | 324 ft | 142 kts | 95° |
| 2026-04-30 11:32 | 53.42027 | -6.24864 | 766 ft | 163 kts | 95° |
| 2026-04-30 11:32 | 53.41933 | -6.22982 | 1585 ft | 162 kts | 98° |
| 2026-04-30 11:33 | 53.41702 | -6.18856 | 2418 ft | 201 kts | 101° |
| 2026-04-30 11:33 | 53.41561 | -6.16386 | 2632 ft | 223 kts | 102° |
| 2026-04-30 11:33 | 53.41409 | -6.13702 | 3117 ft | 238 kts | 101° |
| 2026-04-30 11:33 | 53.41246 | -6.10895 | 3841 ft | 246 kts | 101° |
| 2026-04-30 11:34 | 53.41080 | -6.08006 | 4574 ft | 252 kts | 101° |
| 2026-04-30 11:34 | 53.40918 | -6.05049 | 5298 ft | 258 kts | 97° |
| 2026-04-30 11:34 | 53.41209 | -6.02030 | 6061 ft | 271 kts | 71° |
| 2026-04-30 11:34 | 53.42298 | -5.99418 | 6950 ft | 279 kts | 47° |
| 2026-04-30 11:35 | 53.43985 | -5.97700 | 7684 ft | 293 kts | 22° |
| 2026-04-30 11:35 | 53.45320 | -5.97252 | 7951 ft | 300 kts | 5° |
| 2026-04-30 11:35 | 53.47420 | -5.97520 | 8181 ft | 306 kts | 354° |
| 2026-04-30 11:35 | 53.49534 | -5.98039 | 8171 ft | 306 kts | 354° |
| 2026-04-30 11:36 | 53.51639 | -5.98561 | 8178 ft | 305 kts | 354° |
| 2026-04-30 11:36 | 53.53738 | -5.99135 | 8183 ft | 306 kts | 351° |
| 2026-04-30 11:36 | 53.55826 | -5.99816 | 8182 ft | 306 kts | 351° |
| 2026-04-30 11:36 | 53.57917 | -6.00518 | 8180 ft | 306 kts | 351° |
| 2026-04-30 11:37 | 53.60007 | -6.01215 | 8182 ft | 306 kts | 351° |
| 2026-04-30 11:37 | 53.62095 | -6.01904 | 8188 ft | 306 kts | 351° |
| 2026-04-30 11:37 | 53.64186 | -6.02587 | 8184 ft | 306 kts | 351° |
| 2026-04-30 11:37 | 53.66281 | -6.03266 | 8184 ft | 307 kts | 351° |
| 2026-04-30 11:38 | 53.68374 | -6.03944 | 8189 ft | 307 kts | 351° |
| 2026-04-30 11:38 | 53.70473 | -6.04624 | 8231 ft | 309 kts | 351° |
| 2026-04-30 11:38 | 53.72533 | -6.05738 | 8802 ft | 315 kts | 329° |
| 2026-04-30 11:38 | 53.74233 | -6.08043 | 9724 ft | 315 kts | 313° |
| 2026-04-30 11:39 | 53.75745 | -6.10774 | 10465 ft | 322 kts | 310° |
| 2026-04-30 11:39 | 53.77289 | -6.13708 | 10729 ft | 347 kts | 310° |
| 2026-04-30 11:39 | 53.78934 | -6.16852 | 11115 ft | 364 kts | 310° |
| 2026-04-30 11:39 | 53.80643 | -6.20087 | 11782 ft | 372 kts | 310° |
| 2026-04-30 11:40 | 53.82102 | -6.23690 | 12514 ft | 372 kts | 288° |
| 2026-04-30 11:40 | 53.82535 | -6.27851 | 13319 ft | 362 kts | 261° |
| 2026-04-30 11:40 | 53.82067 | -6.31958 | 14241 ft | 351 kts | 245° |
| 2026-04-30 11:40 | 53.81276 | -6.35873 | 15047 ft | 354 kts | 244° |
| 2026-04-30 11:41 | 53.80444 | -6.39830 | 15764 ft | 360 kts | 243° |
| 2026-04-30 11:41 | 53.79600 | -6.43828 | 16120 ft | 362 kts | 244° |
| 2026-04-30 11:41 | 53.78755 | -6.47862 | 16181 ft | 365 kts | 244° |
| 2026-04-30 11:41 | 53.77921 | -6.51889 | 16184 ft | 363 kts | 244° |
| 2026-04-30 11:42 | 53.77091 | -6.55923 | 16192 ft | 363 kts | 244° |
| 2026-04-30 11:42 | 53.76264 | -6.59956 | 16184 ft | 363 kts | 244° |
| 2026-04-30 11:42 | 53.75439 | -6.63977 | 16185 ft | 363 kts | 244° |
| 2026-04-30 11:42 | 53.74613 | -6.68007 | 16185 ft | 363 kts | 244° |
| 2026-04-30 11:43 | 53.73785 | -6.72031 | 16172 ft | 365 kts | 244° |
| 2026-04-30 11:43 | 53.72919 | -6.76201 | 16191 ft | 389 kts | 244° |
| 2026-04-30 11:43 | 53.71992 | -6.80639 | 16216 ft | 413 kts | 245° |
| 2026-04-30 11:43 | 53.71024 | -6.85298 | 16183 ft | 424 kts | 245° |
| 2026-04-30 11:44 | 53.70054 | -6.90000 | 16154 ft | 424 kts | 245° |
| 2026-04-30 11:44 | 53.69086 | -6.94702 | 16142 ft | 424 kts | 245° |
| 2026-04-30 11:44 | 53.68117 | -6.99385 | 16148 ft | 423 kts | 245° |
| 2026-04-30 11:44 | 53.67143 | -7.04070 | 16150 ft | 423 kts | 245° |
| 2026-04-30 11:45 | 53.66167 | -7.08745 | 16140 ft | 423 kts | 245° |
| 2026-04-30 11:45 | 53.65187 | -7.13421 | 16142 ft | 423 kts | 245° |
| 2026-04-30 11:45 | 53.64206 | -7.18086 | 16152 ft | 423 kts | 245° |
| 2026-04-30 11:45 | 53.63221 | -7.22766 | 16153 ft | 424 kts | 245° |
| 2026-04-30 11:46 | 53.62234 | -7.27446 | 16128 ft | 424 kts | 245° |
| 2026-04-30 11:46 | 53.61246 | -7.32114 | 16137 ft | 424 kts | 245° |
| 2026-04-30 11:46 | 53.60210 | -7.36761 | 16126 ft | 418 kts | 240° |
| 2026-04-30 11:46 | 53.58836 | -7.40952 | 16206 ft | 405 kts | 230° |
| 2026-04-30 11:47 | 53.57093 | -7.44588 | 17096 ft | 393 kts | 223° |
| 2026-04-30 11:47 | 53.55326 | -7.48017 | 18394 ft | 381 kts | 223° |
| 2026-04-30 11:47 | 53.53642 | -7.51342 | 19645 ft | 367 kts | 223° |
| 2026-04-30 11:47 | 53.52020 | -7.54561 | 20812 ft | 356 kts | 223° |
| 2026-04-30 11:48 | 53.50438 | -7.57700 | 21879 ft | 349 kts | 223° |
| 2026-04-30 11:48 | 53.48876 | -7.60794 | 22796 ft | 346 kts | 223° |
| 2026-04-30 11:48 | 53.47320 | -7.63870 | 23587 ft | 346 kts | 223° |
| 2026-04-30 11:48 | 53.45749 | -7.66970 | 24022 ft | 350 kts | 223° |
| 2026-04-30 11:49 | 53.44177 | -7.70078 | 24078 ft | 351 kts | 223° |
| 2026-04-30 11:49 | 53.42558 | -7.73265 | 24128 ft | 367 kts | 223° |
| 2026-04-30 11:49 | 53.40883 | -7.76556 | 24165 ft | 384 kts | 224° |
| 2026-04-30 11:49 | 53.39096 | -7.80015 | 24132 ft | 400 kts | 222° |
| 2026-04-30 11:50 | 53.37142 | -7.83420 | 24136 ft | 411 kts | 220° |
| 2026-04-30 11:50 | 53.35069 | -7.86827 | 24128 ft | 423 kts | 219° |
| 2026-04-30 11:50 | 53.32924 | -7.90290 | 24126 ft | 434 kts | 219° |
| 2026-04-30 11:50 | 53.30732 | -7.93832 | 24120 ft | 443 kts | 219° |
| 2026-04-30 11:51 | 53.28499 | -7.97462 | 24122 ft | 452 kts | 219° |
| 2026-04-30 11:51 | 53.26232 | -8.01168 | 24110 ft | 459 kts | 220° |
| 2026-04-30 11:51 | 53.23946 | -8.04916 | 24106 ft | 461 kts | 220° |
| 2026-04-30 11:51 | 53.21669 | -8.08657 | 24097 ft | 459 kts | 220° |
| 2026-04-30 11:52 | 53.19398 | -8.12386 | 24101 ft | 454 kts | 220° |
| 2026-04-30 11:52 | 53.17207 | -8.15983 | 24092 ft | 431 kts | 219° |
| 2026-04-30 11:52 | 53.15132 | -8.19385 | 24105 ft | 410 kts | 219° |
| 2026-04-30 11:52 | 53.13138 | -8.22640 | 24090 ft | 391 kts | 218° |
| 2026-04-30 11:53 | 53.11235 | -8.25736 | 23926 ft | 375 kts | 218° |
| 2026-04-30 11:53 | 53.09406 | -8.28705 | 23688 ft | 360 kts | 218° |
| 2026-04-30 11:53 | 53.07635 | -8.31574 | 23295 ft | 350 kts | 217° |
| 2026-04-30 11:53 | 53.05916 | -8.34359 | 22945 ft | 340 kts | 217° |
| 2026-04-30 11:54 | 53.04243 | -8.37066 | 22558 ft | 332 kts | 217° |
| 2026-04-30 11:54 | 53.02602 | -8.39720 | 22221 ft | 326 kts | 217° |
| 2026-04-30 11:54 | 53.00989 | -8.42325 | 21877 ft | 321 kts | 217° |
| 2026-04-30 11:54 | 52.99397 | -8.44892 | 21522 ft | 317 kts | 217° |
| 2026-04-30 11:55 | 52.97815 | -8.47439 | 21197 ft | 316 kts | 217° |
| 2026-04-30 11:55 | 52.96239 | -8.49973 | 20868 ft | 314 kts | 217° |
| 2026-04-30 11:55 | 52.94674 | -8.52490 | 20559 ft | 312 kts | 217° |
| 2026-04-30 11:55 | 52.93118 | -8.54989 | 20236 ft | 311 kts | 217° |
| 2026-04-30 11:56 | 52.91566 | -8.57479 | 19909 ft | 310 kts | 217° |
| 2026-04-30 11:56 | 52.90017 | -8.59963 | 19594 ft | 309 kts | 217° |
| 2026-04-30 11:56 | 52.88477 | -8.62430 | 19313 ft | 309 kts | 217° |
| 2026-04-30 11:56 | 52.86920 | -8.64918 | 18949 ft | 312 kts | 217° |
| 2026-04-30 11:57 | 52.85361 | -8.67411 | 18620 ft | 311 kts | 217° |
| 2026-04-30 11:57 | 52.83803 | -8.69901 | 18269 ft | 311 kts | 217° |
| 2026-04-30 11:57 | 52.82247 | -8.72385 | 17903 ft | 310 kts | 217° |
| 2026-04-30 11:57 | 52.80704 | -8.74846 | 17569 ft | 307 kts | 217° |
| 2026-04-30 11:58 | 52.79170 | -8.77291 | 17238 ft | 305 kts | 217° |
| 2026-04-30 11:58 | 52.77649 | -8.79714 | 16924 ft | 303 kts | 217° |
| 2026-04-30 11:58 | 52.76140 | -8.82113 | 16621 ft | 301 kts | 217° |
| 2026-04-30 11:58 | 52.74653 | -8.84472 | 16293 ft | 300 kts | 217° |
| 2026-04-30 11:59 | 52.73126 | -8.86891 | 15979 ft | 299 kts | 217° |
| 2026-04-30 11:59 | 52.71643 | -8.89275 | 15666 ft | 298 kts | 219° |
| 2026-04-30 11:59 | 52.70222 | -8.91750 | 15384 ft | 296 kts | 220° |
| 2026-04-30 11:59 | 52.68856 | -8.94210 | 15040 ft | 295 kts | 222° |
| 2026-04-30 12:00 | 52.67471 | -8.96720 | 14724 ft | 296 kts | 221° |
| 2026-04-30 12:00 | 52.66077 | -8.99219 | 14447 ft | 297 kts | 220° |
| 2026-04-30 12:00 | 52.64678 | -9.01707 | 14129 ft | 295 kts | 220° |
| 2026-04-30 12:00 | 52.63287 | -9.04165 | 13792 ft | 291 kts | 220° |
| 2026-04-30 12:01 | 52.61921 | -9.06579 | 13447 ft | 285 kts | 220° |
| 2026-04-30 12:01 | 52.60587 | -9.08939 | 13139 ft | 278 kts | 220° |
| 2026-04-30 12:01 | 52.59278 | -9.11254 | 12823 ft | 275 kts | 220° |
| 2026-04-30 12:01 | 52.57981 | -9.13540 | 12540 ft | 273 kts | 220° |
| 2026-04-30 12:02 | 52.56687 | -9.15815 | 12220 ft | 272 kts | 220° |
| 2026-04-30 12:02 | 52.55392 | -9.18091 | 11849 ft | 273 kts | 220° |
| 2026-04-30 12:02 | 52.54099 | -9.20364 | 11541 ft | 271 kts | 220° |
| 2026-04-30 12:02 | 52.52814 | -9.22620 | 11246 ft | 270 kts | 220° |
| 2026-04-30 12:03 | 52.51535 | -9.24867 | 10941 ft | 268 kts | 221° |
| 2026-04-30 12:03 | 52.48997 | -9.29316 | 10373 ft | 265 kts | 221° |
| 2026-04-30 12:03 | 52.47744 | -9.31510 | 10188 ft | 260 kts | 221° |
| 2026-04-30 12:04 | 52.46523 | -9.33651 | 9991 ft | 256 kts | 221° |
| 2026-04-30 12:04 | 52.45296 | -9.35792 | 9712 ft | 260 kts | 221° |
| 2026-04-30 12:04 | 52.44043 | -9.37975 | 9435 ft | 266 kts | 221° |
| 2026-04-30 12:04 | 52.42765 | -9.40200 | 9148 ft | 269 kts | 221° |
| 2026-04-30 12:05 | 52.41485 | -9.42432 | 8847 ft | 268 kts | 221° |
| 2026-04-30 12:05 | 52.40213 | -9.44649 | 8555 ft | 266 kts | 221° |
| 2026-04-30 12:05 | 52.38954 | -9.46843 | 8300 ft | 264 kts | 222° |
| 2026-04-30 12:05 | 52.37700 | -9.49022 | 8032 ft | 262 kts | 223° |
| 2026-04-30 12:06 | 52.36449 | -9.51195 | 7740 ft | 261 kts | 223° |
| 2026-04-30 12:06 | 52.35205 | -9.53356 | 7471 ft | 261 kts | 223° |
| 2026-04-30 12:06 | 52.33961 | -9.55512 | 7184 ft | 260 kts | 223° |
| 2026-04-30 12:06 | 52.32722 | -9.57660 | 6914 ft | 259 kts | 223° |
| 2026-04-30 12:07 | 52.31488 | -9.59796 | 6639 ft | 258 kts | 223° |
| 2026-04-30 12:07 | 52.30258 | -9.61923 | 6375 ft | 257 kts | 223° |
| 2026-04-30 12:07 | 52.29027 | -9.64050 | 6069 ft | 257 kts | 223° |
| 2026-04-30 12:07 | 52.27815 | -9.66142 | 5792 ft | 257 kts | 223° |
| 2026-04-30 12:08 | 52.26590 | -9.68257 | 5524 ft | 256 kts | 223° |
| 2026-04-30 12:08 | 52.25371 | -9.70360 | 5175 ft | 254 kts | 223° |
| 2026-04-30 12:08 | 52.24155 | -9.72454 | 4907 ft | 254 kts | 222° |
| 2026-04-30 12:08 | 52.22942 | -9.74544 | 4603 ft | 253 kts | 222° |
| 2026-04-30 12:09 | 52.21744 | -9.76605 | 4341 ft | 247 kts | 222° |
| 2026-04-30 12:09 | 52.20611 | -9.78559 | 4256 ft | 226 kts | 222° |
| 2026-04-30 12:09 | 52.19572 | -9.80345 | 4145 ft | 209 kts | 221° |
| 2026-04-30 12:09 | 52.18611 | -9.81997 | 4029 ft | 194 kts | 220° |
| 2026-04-30 12:10 | 52.17702 | -9.83529 | 3895 ft | 180 kts | 214° |
| 2026-04-30 12:10 | 52.16660 | -9.84240 | 3869 ft | 158 kts | 180° |
| 2026-04-30 12:10 | 52.15580 | -9.84039 | 3743 ft | 156 kts | 159° |
| 2026-04-30 12:10 | 52.14563 | -9.83472 | 3644 ft | 154 kts | 158° |
| 2026-04-30 12:11 | 52.13557 | -9.82917 | 3525 ft | 151 kts | 159° |
| 2026-04-30 12:11 | 52.12716 | -9.81979 | 3388 ft | 149 kts | 128° |
| 2026-04-30 12:11 | 52.12376 | -9.80374 | 3226 ft | 160 kts | 90° |
| 2026-04-30 12:11 | 52.12673 | -9.78592 | 3090 ft | 164 kts | 81° |
| 2026-04-30 12:12 | 52.12994 | -9.76813 | 2893 ft | 164 kts | 79° |
| 2026-04-30 12:12 | 52.13353 | -9.75072 | 2738 ft | 161 kts | 78° |
| 2026-04-30 12:12 | 52.13710 | -9.73340 | 2565 ft | 161 kts | 78° |
| 2026-04-30 12:12 | 52.14075 | -9.71618 | 2396 ft | 161 kts | 78° |
| 2026-04-30 12:13 | 52.14432 | -9.69913 | 2219 ft | 156 kts | 77° |
| 2026-04-30 12:13 | 52.14768 | -9.68318 | 2064 ft | 146 kts | 77° |
| 2026-04-30 12:13 | 52.15093 | -9.66759 | 1858 ft | 145 kts | 77° |
| 2026-04-30 12:13 | 52.15411 | -9.65244 | 1657 ft | 142 kts | 76° |
| 2026-04-30 12:14 | 52.15733 | -9.63689 | 1481 ft | 145 kts | 74° |
| 2026-04-30 12:14 | 52.16049 | -9.62144 | 1257 ft | 145 kts | 75° |
| 2026-04-30 12:14 | 52.16366 | -9.60627 | 1045 ft | 142 kts | 75° |
| 2026-04-30 12:14 | 52.16678 | -9.59139 | 841 ft | 135 kts | 75° |
| 2026-04-30 12:15 | 52.16971 | -9.57738 | 666 ft | 129 kts | 74° |
| 2026-04-30 12:15 | 52.17257 | -9.56303 | 445 ft | 138 kts | 75° |
| 2026-04-30 12:15 | 52.17594 | -9.54801 | 284 ft | 143 kts | 75° |
| 2026-04-30 12:15 | 52.17908 | -9.53272 | 105 ft | 139 kts | 71° |
| 2026-04-30 12:16 | 52.18178 | -9.51965 | 91 ft | 95 kts | 72° |
| 2026-04-30 12:16 | 52.18323 | -9.51283 | 95 ft | 33 kts | 69° |
| 2026-04-30 12:16 | 52.18376 | -9.51096 | 94 ft | 13 kts | 54° |
| 2026-04-30 12:16 | 52.18426 | -9.50979 | 93 ft | 12 kts | 54° |
| 2026-04-30 12:17 | 52.18460 | -9.50757 | 90 ft | 12 kts | 165° |
| 2026-04-30 12:17 | 52.18405 | -9.50911 | 92 ft | 47 kts | 252° |
| 2026-04-30 12:17 | 52.18272 | -9.51502 | 94 ft | 55 kts | 251° |
| 2026-04-30 12:18 | 52.18153 | -9.52078 | 89 ft | 52 kts | 251° |
| 2026-04-30 12:18 | 52.18040 | -9.52610 | 91 ft | 47 kts | 251° |
| 2026-04-30 12:18 | 52.17937 | -9.53096 | 90 ft | 44 kts | 251° |
| 2026-04-30 12:18 | 52.17860 | -9.53487 | 91 ft | 21 kts | 260° |
| 2026-04-30 12:19 | 52.17899 | -9.53566 | 93 ft | 0 kts | 337° |
| 2026-04-30 12:19 | 52.17946 | -9.53594 | 92 ft | 14 kts | 340° |
| 2026-04-30 12:20 | 52.18020 | -9.53644 | 91 ft | 9 kts | 328° |
| 2026-04-30 12:20 | 52.18060 | -9.53677 | 90 ft | 0 kts | 348° |
| 2026-04-30 12:20 | 52.18066 | -9.53678 | 90 ft | 4 kts | 356° |
| 2026-04-30 12:20 | 52.18078 | -9.53678 | 90 ft | 3 kts | 359° |
| 2026-04-30 12:21 | 52.18092 | -9.53666 | 93 ft | 2 kts | 56° |
| 2026-04-30 12:21 | 52.18093 | -9.53644 | 90 ft | 2 kts | 93° |
| 2026-04-30 12:21 | 52.18092 | -9.53626 | 90 ft | 0 kts | 98° |